Time;durP1;ratioP1;P1;durP2;ratioP2;P2;SDS_P1;SDS_P2;PMS_P1;PMS_P2;Temp;Humidity;BMP_temperature;BMP_pressure;BME280_temperature;BME280_humidity;BME280_pressure;Samples;Min_cycle;Max_cycle;Signal;HPM_P1;HPM_P2
2024/01/08 00:01:02;;;;;;;;;;;;;;;5.63;78.43;102826.09;7346993;19;19922;-65
2024/01/08 00:03:28;;;;;;;;;;;;;;;5.65;78.42;102829.63;7349921;19;19933;-65
2024/01/08 00:05:53;;;;;;;;;;;;;;;5.65;78.77;102829.63;7355883;19;19926;-65
2024/01/08 00:08:20;;;;;;;;;;;;;;;5.67;78.44;102825.34;7356080;19;20665;-65
2024/01/08 00:10:45;;;;;;;;;;;;;;;5.69;78.62;102841.84;7356241;19;19926;-66
2024/01/08 00:13:10;;;;;;;;;;;;;;;5.69;78.26;102832.34;7351436;19;20255;-66
2024/01/08 00:15:35;;;;;;;;;;;;;;;5.64;78.74;102828.75;7354439;19;19919;-65
2024/01/08 00:18:01;;;;;;;;;;;;;;;5.69;78.53;102826.28;7353427;19;19921;-66
2024/01/08 00:20:26;;;;;;;;;;;;;;;5.71;78.43;102829.81;7351163;19;19988;-65
2024/01/08 00:22:51;;;;;;;;;;;;;;;5.71;78.66;102835.88;7353235;19;19929;-66
2024/01/08 00:25:21;;;;;;;;;;;;;;;5.72;78.63;102831.56;7352707;19;19938;-65
2024/01/08 00:27:46;;;;;;;;;;;;;;;5.72;78.60;102828.97;7352560;19;19927;-66
2024/01/08 00:30:11;;;;;;;;;;;;;;;5.73;78.86;102820.38;7354250;19;20358;-65
2024/01/08 00:32:37;;;;;;;;;;;;;;;5.74;78.83;102814.34;7354090;19;19923;-65
2024/01/08 00:35:04;;;;;;;;;;;;;;;5.76;78.84;102802.31;7351345;19;19922;-65
2024/01/08 00:37:29;;;;;;;;;;;;;;;5.78;78.78;102805.84;7356100;19;19943;-65
2024/01/08 00:39:54;;;;;;;;;;;;;;;5.80;78.79;102808.47;7353006;19;19919;-65
2024/01/08 00:42:19;;;;;;;;;;;;;;;5.82;79.04;102804.22;7354242;19;19949;-65
2024/01/08 00:44:45;;;;;;;;;;;;;;;5.82;79.03;102791.25;7355366;19;19911;-66
2024/01/08 00:47:10;;;;;;;;;;;;;;;5.82;78.85;102792.13;7355369;19;20002;-65
2024/01/08 00:49:35;;;;;;;;;;;;;;;5.83;79.20;102791.31;7354180;19;20398;-65
2024/01/08 00:52:01;;;;;;;;;;;;;;;5.83;79.04;102793.91;7357381;19;20614;-66
2024/01/08 00:54:26;;;;;;;;;;;;;;;5.83;78.83;102793.91;7356945;19;19914;-65
2024/01/08 00:56:51;;;;;;;;;;;;;;;5.85;79.03;102796.53;7357074;19;19929;-66
2024/01/08 00:59:16;;;;;;;;;;;;;;;5.85;78.63;102788.75;7362076;19;19943;-65
2024/01/08 01:01:41;;;;;;;;;;;;;;;5.84;78.64;102795.66;7358255;19;19923;-65
2024/01/08 01:04:07;;;;;;;;;;;;;;;5.82;78.59;102792.13;7359956;19;20463;-65
2024/01/08 01:06:32;;;;;;;;;;;;;;;5.81;78.52;102790.38;7362583;19;19987;-66
2024/01/08 01:08:57;;;;;;;;;;;;;;;5.79;78.52;102792.06;7365404;19;19922;-65
2024/01/08 01:11:22;;;;;;;;;;;;;;;5.77;78.89;102788.50;7360176;19;20016;-66
2024/01/08 01:13:48;;;;;;;;;;;;;;;5.73;78.61;102787.56;7366907;19;20318;-65
2024/01/08 01:16:13;;;;;;;;;;;;;;;5.70;78.33;102791.75;7362325;19;19922;-65
2024/01/08 01:18:38;;;;;;;;;;;;;;;5.67;78.46;102804.59;7363129;19;19933;-66
2024/01/08 01:21:04;;;;;;;;;;;;;;;5.62;78.51;102796.69;7362921;19;19919;-66
2024/01/08 01:23:29;;;;;;;;;;;;;;;5.60;78.31;102794.91;7361557;19;19956;-65
2024/01/08 01:25:54;;;;;;;;;;;;;;;5.54;78.24;102793.00;7369075;19;20586;-66
2024/01/08 01:28:19;;;;;;;;;;;;;;;5.53;78.27;102798.16;7351899;19;19915;-66
2024/01/08 01:30:44;;;;;;;;;;;;;;;5.51;78.14;102794.59;7372857;19;20745;-65
2024/01/08 01:33:10;;;;;;;;;;;;;;;5.50;78.41;102792.84;7358242;19;19929;-65
2024/01/08 01:35:35;;;;;;;;;;;;;;;5.48;78.36;102792.81;7366515;19;19926;-65
2024/01/08 01:38:00;;;;;;;;;;;;;;;5.47;78.59;102799.72;7361250;19;19943;-65
2024/01/08 01:40:26;;;;;;;;;;;;;;;5.47;78.81;102799.72;7358701;19;19937;-65
2024/01/08 01:42:54;;;;;;;;;;;;;;;5.47;78.33;102793.63;7359665;19;19921;-66
2024/01/08 01:45:20;;;;;;;;;;;;;;;5.47;78.50;102794.53;7363728;19;19935;-65
2024/01/08 01:47:45;;;;;;;;;;;;;;;5.47;78.70;102794.53;7364421;19;19950;-65
2024/01/08 01:50:11;;;;;;;;;;;;;;;5.45;78.43;102795.28;7362582;19;20394;-65
2024/01/08 01:52:37;;;;;;;;;;;;;;;5.45;78.81;102801.34;7355191;19;19933;-65
2024/01/08 01:55:03;;;;;;;;;;;;;;;5.43;78.75;102796.97;7362703;19;20363;-65
2024/01/08 01:57:28;;;;;;;;;;;;;;;5.40;78.68;102792.56;7360547;19;19947;-65
2024/01/08 01:59:53;;;;;;;;;;;;;;;5.39;78.61;102802.88;7358270;19;19927;-65
2024/01/08 02:02:19;;;;;;;;;;;;;;;5.35;78.57;102799.28;7363164;19;20361;-65
2024/01/08 02:04:44;;;;;;;;;;;;;;;5.31;78.32;102802.59;7358052;19;19934;-65
2024/01/08 02:07:10;;;;;;;;;;;;;;;5.26;77.83;102806.75;7359472;19;19977;-65
2024/01/08 02:09:35;;;;;;;;;;;;;;;5.21;78.15;102816.09;7362385;19;20398;-65
2024/01/08 02:12:01;;;;;;;;;;;;;;;5.15;77.91;102815.88;7357865;19;19930;-65
2024/01/08 02:14:27;;;;;;;;;;;;;;;5.10;77.72;102817.44;7370460;19;19918;-65
2024/01/08 02:16:52;;;;;;;;;;;;;;;5.03;77.86;102818.09;7368421;19;19926;-65
2024/01/08 02:19:17;;;;;;;;;;;;;;;4.98;77.79;102809.28;7368017;19;19935;-65
2024/01/08 02:21:42;;;;;;;;;;;;;;;4.91;77.43;102811.63;7361762;19;19926;-65
2024/01/08 02:24:08;;;;;;;;;;;;;;;4.87;77.64;102808.91;7357917;19;20536;-65
2024/01/08 02:26:36;;;;;;;;;;;;;;;4.81;77.79;102814.72;7360625;19;20841;-65
2024/01/08 02:29:01;;;;;;;;;;;;;;;4.79;77.88;102816.41;7359337;19;19936;-65
2024/01/08 02:31:27;;;;;;;;;;;;;;;4.78;78.03;102818.94;7366287;19;19919;-65
2024/01/08 02:33:52;;;;;;;;;;;;;;;4.77;78.06;102818.06;7366538;19;19918;-66
2024/01/08 02:36:17;;;;;;;;;;;;;;;4.76;78.22;102829.22;7354818;19;20787;-66
2024/01/08 02:38:43;;;;;;;;;;;;;;;4.77;78.46;102823.25;7357089;19;19996;-65
2024/01/08 02:41:08;;;;;;;;;;;;;;;4.80;78.58;102823.31;7362740;19;19922;-66
2024/01/08 02:43:33;;;;;;;;;;;;;;;4.81;78.29;102822.50;7358068;19;19919;-65
2024/01/08 02:45:58;;;;;;;;;;;;;;;4.83;78.34;102818.28;7360918;19;20601;-65
2024/01/08 02:48:24;;;;;;;;;;;;;;;4.87;78.40;102824.44;7337805;19;19919;-65
2024/01/08 02:50:49;;;;;;;;;;;;;;;4.87;78.55;102820.16;7356984;19;20652;-65
2024/01/08 02:53:14;;;;;;;;;;;;;;;4.89;78.80;102815.00;7359565;19;19918;-65
2024/01/08 02:55:39;;;;;;;;;;;;;;;4.89;78.35;102813.28;7353768;19;20404;-66
2024/01/08 02:58:05;;;;;;;;;;;;;;;4.89;78.33;102817.59;7358062;19;20311;-65
2024/01/08 03:00:30;;;;;;;;;;;;;;;4.88;78.68;102806.38;7359947;19;19943;-65
2024/01/08 03:02:55;;;;;;;;;;;;;;;4.87;78.47;102809.78;7358607;19;19925;-65
2024/01/08 03:05:21;;;;;;;;;;;;;;;4.86;78.60;102812.31;7355264;19;20050;-66
2024/01/08 03:07:46;;;;;;;;;;;;;;;4.85;78.26;102806.25;7368196;19;19911;-66
2024/01/08 03:10:11;;;;;;;;;;;;;;;4.84;78.34;102799.31;7360763;19;19934;-66
2024/01/08 03:12:37;;;;;;;;;;;;;;;4.81;78.55;102804.38;7355773;19;19919;-65
2024/01/08 03:15:02;;;;;;;;;;;;;;;4.80;78.61;102815.56;7358746;19;19929;-65
2024/01/08 03:17:27;;;;;;;;;;;;;;;4.81;78.64;102809.56;7358760;19;19915;-65
2024/01/08 03:19:53;;;;;;;;;;;;;;;4.81;78.65;102801.78;7360199;19;19947;-65
2024/01/08 03:22:18;;;;;;;;;;;;;;;4.82;78.58;102803.56;7355594;19;19926;-65
2024/01/08 03:24:43;;;;;;;;;;;;;;;4.83;78.43;102801.88;7356047;19;19907;-66
2024/01/08 03:27:09;;;;;;;;;;;;;;;4.85;78.85;102806.25;7358078;19;19923;-66
2024/01/08 03:29:34;;;;;;;;;;;;;;;4.85;78.87;102801.06;7357779;19;20932;-66
2024/01/08 03:31:59;;;;;;;;;;;;;;;4.86;78.39;102797.66;7358048;19;20787;-65
2024/01/08 03:34:24;;;;;;;;;;;;;;;4.87;78.73;102798.56;7356369;19;19923;-65
2024/01/08 03:36:50;;;;;;;;;;;;;;;4.86;78.30;102802.81;7355712;19;19925;-65
2024/01/08 03:39:17;;;;;;;;;;;;;;;4.84;78.32;102804.50;7360526;19;19974;-65
2024/01/08 03:41:42;;;;;;;;;;;;;;;4.82;78.47;102808.75;7359109;19;19922;-65
2024/01/08 03:44:08;;;;;;;;;;;;;;;4.78;78.48;102812.06;7359203;19;20251;-65
2024/01/08 03:46:33;;;;;;;;;;;;;;;4.75;78.19;102813.66;7357620;19;19918;-66
2024/01/08 03:48:59;;;;;;;;;;;;;;;4.73;78.11;102825.66;7357906;19;20436;-65
2024/01/08 03:51:24;;;;;;;;;;;;;;;4.71;78.43;102838.53;7357066;19;20740;-66
2024/01/08 03:53:49;;;;;;;;;;;;;;;4.70;78.33;102831.59;7351880;19;19923;-65
2024/01/08 03:56:14;;;;;;;;;;;;;;;4.69;78.20;102840.19;7356038;19;19915;-65
2024/01/08 03:58:40;;;;;;;;;;;;;;;4.69;78.65;102835.00;7358475;19;19923;-66
2024/01/08 04:01:05;;;;;;;;;;;;;;;4.70;78.52;102839.34;7360055;19;20268;-65
2024/01/08 04:03:30;;;;;;;;;;;;;;;4.72;78.46;102840.31;7354042;19;19918;-65
2024/01/08 04:05:55;;;;;;;;;;;;;;;4.73;78.54;102842.06;7357986;19;20002;-66
2024/01/08 04:08:21;;;;;;;;;;;;;;;4.76;78.97;102842.16;7357172;19;19915;-66
2024/01/08 04:10:46;;;;;;;;;;;;;;;4.78;78.76;102832.75;7352004;19;19919;-65
2024/01/08 04:13:11;;;;;;;;;;;;;;;4.81;79.14;102832.84;7355557;19;19931;-66
2024/01/08 04:15:36;;;;;;;;;;;;;;;4.83;78.86;102828.63;7358868;19;19986;-65
2024/01/08 04:18:02;;;;;;;;;;;;;;;4.86;78.72;102827.84;7328436;19;19915;-65
2024/01/08 04:20:27;;;;;;;;;;;;;;;4.88;78.89;102837.44;7360375;19;19926;-65
2024/01/08 04:22:52;;;;;;;;;;;;;;;4.90;79.01;102830.59;7357047;19;19930;-65
2024/01/08 04:25:18;;;;;;;;;;;;;;;4.91;79.08;102834.94;7363157;19;19931;-66
2024/01/08 04:27:43;;;;;;;;;;;;;;;4.93;79.07;102835.88;7357481;19;20986;-65
2024/01/08 04:30:09;;;;;;;;;;;;;;;4.95;78.87;102835.94;7366321;19;19935;-65
2024/01/08 04:32:34;;;;;;;;;;;;;;;4.96;79.00;102845.44;7365937;19;19926;-65
2024/01/08 04:34:59;;;;;;;;;;;;;;;4.95;78.87;102843.69;7365161;19;19929;-65
2024/01/08 04:37:24;;;;;;;;;;;;;;;4.96;78.73;102845.44;7366673;19;19940;-65
2024/01/08 04:39:50;;;;;;;;;;;;;;;4.95;78.98;102841.97;7365081;19;20630;-66
2024/01/08 04:42:15;;;;;;;;;;;;;;;4.97;78.89;102841.16;7359380;19;19921;-65
2024/01/08 04:44:40;;;;;;;;;;;;;;;4.97;79.04;102835.97;7364706;19;19926;-66
2024/01/08 04:47:07;;;;;;;;;;;;;;;4.98;78.97;102841.22;7367003;19;19918;-66
2024/01/08 04:49:32;;;;;;;;;;;;;;;4.99;78.93;102839.50;7363904;19;19946;-65
2024/01/08 04:51:57;;;;;;;;;;;;;;;5.01;78.89;102845.59;7363710;19;19915;-65
2024/01/08 04:54:22;;;;;;;;;;;;;;;5.02;78.76;102849.94;7360681;19;19922;-65
2024/01/08 04:56:48;;;;;;;;;;;;;;;5.02;79.08;102839.59;7359014;19;19936;-66
2024/01/08 04:59:13;;;;;;;;;;;;;;;5.05;78.84;102842.31;7360916;19;19918;-66
2024/01/08 05:01:38;;;;;;;;;;;;;;;5.05;78.81;102844.91;7362621;19;19919;-65
2024/01/08 05:04:04;;;;;;;;;;;;;;;5.08;78.97;102852.78;7364983;19;20005;-66
2024/01/08 05:06:29;;;;;;;;;;;;;;;5.08;79.07;102851.06;7365497;19;19923;-65
2024/01/08 05:08:54;;;;;;;;;;;;;;;5.09;79.27;102851.94;7359260;19;19987;-65
2024/01/08 05:11:20;;;;;;;;;;;;;;;5.10;78.85;102849.41;7366553;19;19919;-66
2024/01/08 05:13:45;;;;;;;;;;;;;;;5.11;78.74;102855.47;7360008;19;20896;-65
2024/01/08 05:16:10;;;;;;;;;;;;;;;5.12;79.21;102852.94;7370692;19;19923;-65
2024/01/08 05:18:35;;;;;;;;;;;;;;;5.12;78.89;102850.34;7351480;19;19923;-65
2024/01/08 05:21:02;;;;;;;;;;;;;;;5.11;79.19;102853.75;7362564;19;20418;-65
2024/01/08 05:23:27;;;;;;;;;;;;;;;5.13;78.95;102854.69;7364360;19;20249;-66
2024/01/08 05:25:53;;;;;;;;;;;;;;;5.13;79.34;102852.09;7362993;19;19935;-66
2024/01/08 05:28:18;;;;;;;;;;;;;;;5.15;79.07;102857.34;7364534;19;20348;-65
2024/01/08 05:30:43;;;;;;;;;;;;;;;5.15;79.34;102857.34;7362950;19;19955;-65
2024/01/08 05:33:08;;;;;;;;;;;;;;;5.16;79.03;102859.09;7362488;19;20319;-66
2024/01/08 05:35:35;;;;;;;;;;;;;;;5.16;79.45;102853.91;7364683;19;20339;-65
2024/01/08 05:38:01;;;;;;;;;;;;;;;5.16;79.49;102853.91;7359890;19;20322;-65
2024/01/08 05:40:27;;;;;;;;;;;;;;;5.16;79.28;102864.25;7360987;19;19922;-66
2024/01/08 05:42:52;;;;;;;;;;;;;;;5.16;79.28;102864.25;7370190;19;19943;-65
2024/01/08 05:45:18;;;;;;;;;;;;;;;5.16;79.25;102874.63;7365867;19;19922;-65
2024/01/08 05:47:44;;;;;;;;;;;;;;;5.17;79.16;102871.19;7364496;19;19930;-65
2024/01/08 05:50:09;;;;;;;;;;;;;;;5.17;79.29;102871.19;7358396;19;19953;-65
2024/01/08 05:52:35;;;;;;;;;;;;;;;5.16;79.33;102864.25;7362015;19;19926;-65
2024/01/08 05:55:00;;;;;;;;;;;;;;;5.15;79.38;102857.34;7360489;19;19944;-65
2024/01/08 05:57:25;;;;;;;;;;;;;;;5.15;79.27;102867.69;7362055;19;19927;-65
2024/01/08 05:59:50;;;;;;;;;;;;;;;5.16;79.04;102859.09;7361966;19;19925;-66
2024/01/08 06:02:15;;;;;;;;;;;;;;;5.15;79.36;102859.91;7363510;19;20666;-65
2024/01/08 06:04:41;;;;;;;;;;;;;;;5.14;79.31;102859.03;7367670;19;19926;-65
2024/01/08 06:07:06;;;;;;;;;;;;;;;5.15;79.41;102872.88;7365163;19;19923;-65
2024/01/08 06:09:31;;;;;;;;;;;;;;;5.14;79.10;102863.34;7360542;19;19936;-65
2024/01/08 06:11:58;;;;;;;;;;;;;;;5.15;79.47;102867.69;7362531;19;20690;-65
2024/01/08 06:14:24;;;;;;;;;;;;;;;5.16;79.43;102872.91;7358976;19;19946;-65
2024/01/08 06:16:49;;;;;;;;;;;;;;;5.16;79.07;102869.44;7361243;19;19923;-65
2024/01/08 06:19:15;;;;;;;;;;;;;;;5.16;79.26;102874.63;7358742;19;19927;-65
2024/01/08 06:21:40;;;;;;;;;;;;;;;5.19;79.49;102885.09;7360500;19;19942;-66
2024/01/08 06:24:05;;;;;;;;;;;;;;;5.19;79.63;102872.16;7362170;19;19918;-65
2024/01/08 06:26:31;;;;;;;;;;;;;;;5.22;79.54;102869.69;7360424;19;20683;-65
2024/01/08 06:28:56;;;;;;;;;;;;;;;5.25;79.55;102872.34;7363156;19;19930;-65
2024/01/08 06:31:21;;;;;;;;;;;;;;;5.28;79.69;102869.00;7359610;19;19946;-65
2024/01/08 06:33:47;;;;;;;;;;;;;;;5.30;79.62;102872.50;7360398;19;19944;-66
2024/01/08 06:36:12;;;;;;;;;;;;;;;5.34;79.48;102869.19;7358478;19;19919;-65
2024/01/08 06:38:37;;;;;;;;;;;;;;;5.36;79.68;102868.41;7361794;19;19935;-65
2024/01/08 06:41:02;;;;;;;;;;;;;;;5.39;79.29;102872.81;7359392;19;20019;-66
2024/01/08 06:43:28;;;;;;;;;;;;;;;5.42;79.37;102873.81;7360954;19;19931;-65
2024/01/08 06:45:53;;;;;;;;;;;;;;;5.39;79.46;102858.16;7362574;19;20017;-65
2024/01/08 06:48:18;;;;;;;;;;;;;;;5.48;79.52;102870.56;7356670;19;19939;-65
2024/01/08 06:50:43;;;;;;;;;;;;;;;5.51;79.83;102872.34;7370317;19;20449;-65
2024/01/08 06:53:09;;;;;;;;;;;;;;;5.53;79.57;102871.59;7356656;19;19918;-65
2024/01/08 06:55:34;;;;;;;;;;;;;;;5.57;79.68;102877.72;7360189;19;19923;-66
2024/01/08 06:57:59;;;;;;;;;;;;;;;5.59;80.05;102876.97;7356274;19;19915;-65
2024/01/08 07:00:26;;;;;;;;;;;;;;;5.62;79.91;102876.16;7364286;19;20334;-65
2024/01/08 07:02:52;;;;;;;;;;;;;;;5.65;79.70;102881.47;7370928;19;20455;-65
2024/01/08 07:05:18;;;;;;;;;;;;;;;5.67;80.01;102866.81;7352568;19;20023;-65
2024/01/08 07:07:43;;;;;;;;;;;;;;;5.69;79.85;102878.13;7362319;19;20333;-66
2024/01/08 07:10:09;;;;;;;;;;;;;;;5.72;80.14;102873.03;7357821;19;19922;-65
2024/01/08 07:12:34;;;;;;;;;;;;;;;5.75;80.14;102867.09;7360637;19;20650;-65
2024/01/08 07:14:59;;;;;;;;;;;;;;;5.77;80.01;102865.41;7360328;19;19915;-65
2024/01/08 07:17:24;;;;;;;;;;;;;;;5.79;79.86;102872.41;7357917;19;19915;-65
2024/01/08 07:19:50;;;;;;;;;;;;;;;5.79;79.81;102877.59;7363797;19;19922;-65
2024/01/08 07:22:15;;;;;;;;;;;;;;;5.80;79.99;102876.75;7354900;19;20222;-66
2024/01/08 07:24:40;;;;;;;;;;;;;;;5.81;80.05;102878.53;7358006;19;20015;-65
2024/01/08 07:27:05;;;;;;;;;;;;;;;5.81;79.53;102883.69;7358819;19;19911;-65
2024/01/08 07:29:31;;;;;;;;;;;;;;;5.82;79.46;102884.56;7360825;19;20323;-65
2024/01/08 07:31:57;;;;;;;;;;;;;;;5.82;79.51;102880.28;7357783;19;20018;-65
2024/01/08 07:34:22;;;;;;;;;;;;;;;5.83;79.38;102882.06;7354455;19;20356;-66
2024/01/08 07:36:47;;;;;;;;;;;;;;;5.84;79.54;102877.75;7367729;19;19923;-65
2024/01/08 07:39:16;;;;;;;;;;;;;;;5.84;79.69;102881.22;7359173;19;19956;-65
2024/01/08 07:41:41;;;;;;;;;;;;;;;5.86;79.42;102876.06;7354794;19;19930;-65
2024/01/08 07:44:06;;;;;;;;;;;;;;;5.87;79.46;102883.88;7357182;19;19915;-65
2024/01/08 07:46:32;;;;;;;;;;;;;;;5.89;79.66;102881.38;7359466;19;20304;-65
2024/01/08 07:48:58;;;;;;;;;;;;;;;5.91;79.74;102885.78;7357699;19;19930;-66
2024/01/08 07:51:24;;;;;;;;;;;;;;;5.94;79.79;102885.03;7351002;19;19919;-65
2024/01/08 07:53:50;;;;;;;;;;;;;;;5.95;79.82;102881.59;7349381;19;19919;-65
2024/01/08 07:56:15;;;;;;;;;;;;;;;5.96;79.81;102878.16;7358178;19;19922;-65
2024/01/08 07:58:40;;;;;;;;;;;;;;;5.94;79.49;102891.09;7358193;19;19957;-66
2024/01/08 08:01:07;;;;;;;;;;;;;;;5.93;79.65;102899.69;7362359;19;19925;-65
2024/01/08 08:03:33;;;;;;;;;;;;;;;5.92;79.13;102897.91;7358736;19;20603;-65
2024/01/08 08:05:58;;;;;;;;;;;;;;;5.89;79.44;102903.00;7365206;19;19940;-65
2024/01/08 08:08:23;;;;;;;;;;;;;;;5.87;79.45;102911.53;7367029;19;19915;-65
2024/01/08 08:10:48;;;;;;;;;;;;;;;5.84;79.59;102912.34;7369128;19;19939;-65
2024/01/08 08:13:14;;;;;;;;;;;;;;;5.81;79.50;102909.63;7360524;19;19922;-65
2024/01/08 08:15:39;;;;;;;;;;;;;;;5.80;79.46;102913.06;7367642;19;19994;-65
2024/01/08 08:18:04;;;;;;;;;;;;;;;5.78;79.02;102916.41;7363995;19;20396;-65
2024/01/08 08:20:29;;;;;;;;;;;;;;;5.76;79.22;102916.38;7367766;19;19923;-65
2024/01/08 08:22:55;;;;;;;;;;;;;;;5.75;79.42;102917.22;7362875;19;20011;-65
2024/01/08 08:25:20;;;;;;;;;;;;;;;5.73;79.54;102922.38;7363110;19;20737;-65
2024/01/08 08:27:45;;;;;;;;;;;;;;;5.71;79.11;102917.94;7361881;19;19942;-65
2024/01/08 08:30:12;;;;;;;;;;;;;;;5.70;79.67;102922.25;7338485;19;19923;-66
2024/01/08 08:32:39;;;;;;;;;;;;;;;5.69;79.53;102927.38;7366658;19;20355;-65
2024/01/08 08:35:05;;;;;;;;;;;;;;;5.67;79.71;102940.28;7359632;19;20462;-66
2024/01/08 08:37:30;;;;;;;;;;;;;;;5.67;79.44;102936.81;7368470;19;19919;-65
2024/01/08 08:39:56;;;;;;;;;;;;;;;5.66;79.39;102937.66;7352414;19;19927;-65
2024/01/08 08:42:21;;;;;;;;;;;;;;;5.68;79.50;102943.78;7332020;19;19939;-65
2024/01/08 08:44:46;;;;;;;;;;;;;;;5.67;79.47;102944.59;7363029;19;20628;-65
2024/01/08 08:47:12;;;;;;;;;;;;;;;5.67;79.69;102940.28;7364997;19;19923;-65
2024/01/08 08:49:37;;;;;;;;;;;;;;;5.67;79.15;102945.47;7365656;19;19918;-65
2024/01/08 08:52:03;;;;;;;;;;;;;;;5.68;79.42;102942.06;7363959;19;19915;-65
2024/01/08 08:54:28;;;;;;;;;;;;;;;5.68;79.22;102938.59;7360304;19;19915;-65
2024/01/08 08:56:53;;;;;;;;;;;;;;;5.69;79.24;102937.75;7356708;19;20002;-65
2024/01/08 08:59:19;;;;;;;;;;;;;;;5.68;79.13;102923.03;7363564;19;19936;-66
2024/01/08 09:01:47;;;;;;;;;;;;;;;5.69;79.27;102935.16;7360516;19;19926;-65
2024/01/08 09:04:12;;;;;;;;;;;;;;;5.70;79.35;102931.75;7365355;19;19915;-65
2024/01/08 09:06:38;;;;;;;;;;;;;;;5.70;79.18;102936.91;7345266;19;20835;-65
2024/01/08 09:09:03;;;;;;;;;;;;;;;5.72;79.34;102933.53;7368427;19;19930;-65
2024/01/08 09:11:29;;;;;;;;;;;;;;;5.74;79.41;102933.59;7367334;19;19922;-65
2024/01/08 09:13:54;;;;;;;;;;;;;;;5.76;79.61;102937.13;7365839;19;20692;-66
2024/01/08 09:16:20;;;;;;;;;;;;;;;5.78;79.52;102945.84;7360126;19;19922;-65
2024/01/08 09:18:45;;;;;;;;;;;;;;;5.81;79.93;102940.75;7365591;19;19923;-65
2024/01/08 09:21:11;;;;;;;;;;;;;;;5.83;80.13;102949.47;7364206;19;20368;-65
2024/01/08 09:23:40;;;;;;;;;;;;;;;5.86;79.73;102949.56;7364212;19;20020;-65
2024/01/08 09:26:05;;;;;;;;;;;;;;;5.88;79.32;102953.09;7364954;19;19929;-65
2024/01/08 09:28:31;;;;;;;;;;;;;;;5.90;79.39;102961.78;7363841;19;19911;-66
2024/01/08 09:30:56;;;;;;;;;;;;;;;5.91;79.64;102958.41;7357835;19;20207;-65
2024/01/08 09:33:21;;;;;;;;;;;;;;;5.92;79.27;102970.53;7358703;19;19952;-65
2024/01/08 09:35:47;;;;;;;;;;;;;;;5.93;78.89;102967.13;7363107;19;19914;-65
2024/01/08 09:38:12;;;;;;;;;;;;;;;5.96;78.98;102972.38;7361911;19;19927;-65
2024/01/08 09:40:38;;;;;;;;;;;;;;;5.98;79.51;102970.75;7362013;19;19915;-65
2024/01/08 09:43:09;;;;;;;;;;;;;;;5.94;79.50;102953.31;7359085;19;19926;-65
2024/01/08 09:45:38;;;;;;;;;;;;;;;6.03;79.59;102968.28;7361737;19;19923;-66
2024/01/08 09:48:04;;;;;;;;;;;;;;;6.06;79.37;102972.69;7367905;19;19918;-65
2024/01/08 09:50:30;;;;;;;;;;;;;;;6.08;79.56;102977.09;7362383;19;19941;-65
2024/01/08 09:52:56;;;;;;;;;;;;;;;6.10;79.60;102974.56;7360918;19;19926;-65
2024/01/08 09:55:21;;;;;;;;;;;;;;;6.11;79.43;102990.16;7368469;19;19926;-65
2024/01/08 09:57:47;;;;;;;;;;;;;;;6.12;79.56;102983.25;7370213;19;19918;-66
2024/01/08 10:00:13;;;;;;;;;;;;;;;6.13;78.96;102992.81;7365327;19;19919;-65
2024/01/08 10:02:39;;;;;;;;;;;;;;;6.14;78.93;102992.00;7358773;19;20781;-65
2024/01/08 10:05:08;;;;;;;;;;;;;;;6.15;79.22;102993.75;7360596;19;19914;-66
2024/01/08 10:07:36;;;;;;;;;;;;;;;6.16;79.09;102990.31;7369577;19;20713;-65
2024/01/08 10:10:03;;;;;;;;;;;;;;;6.17;78.73;102987.75;7362799;19;19923;-65
2024/01/08 10:12:30;;;;;;;;;;;;;;;6.19;78.68;102987.84;7363736;19;19933;-65
2024/01/08 10:14:56;;;;;;;;;;;;;;;6.21;79.14;102988.75;7370932;19;19918;-65
2024/01/08 10:17:21;;;;;;;;;;;;;;;6.22;79.14;102987.91;7361877;19;19926;-66
2024/01/08 10:19:47;;;;;;;;;;;;;;;6.23;78.90;102998.38;7368855;19;19919;-65
2024/01/08 10:22:12;;;;;;;;;;;;;;;6.27;79.52;103004.50;7364740;19;19919;-65
2024/01/08 10:24:38;;;;;;;;;;;;;;;6.29;79.63;103002.88;7366009;19;19919;-65
2024/01/08 10:27:04;;;;;;;;;;;;;;;6.33;79.26;103009.00;7362065;19;19926;-66
2024/01/08 10:29:30;;;;;;;;;;;;;;;6.35;79.38;103008.25;7357361;19;20601;-65
2024/01/08 10:31:55;;;;;;;;;;;;;;;6.38;79.23;103010.03;7357703;19;20677;-66
2024/01/08 10:34:21;;;;;;;;;;;;;;;6.39;79.16;102998.84;7360264;19;19923;-65
2024/01/08 10:36:47;;;;;;;;;;;;;;;6.41;79.01;103012.75;7358824;19;19935;-65
2024/01/08 10:39:13;;;;;;;;;;;;;;;6.42;79.42;103019.69;7359390;19;19915;-65
2024/01/08 10:41:38;;;;;;;;;;;;;;;6.44;79.18;103013.72;7357754;19;19948;-66
2024/01/08 10:44:03;;;;;;;;;;;;;;;6.46;79.09;103017.25;7358689;19;19927;-65
2024/01/08 10:46:34;;;;;;;;;;;;;;;6.47;79.44;103012.94;7358411;19;20019;-65
2024/01/08 10:49:14;;;;;;;;;;;;;;;6.47;79.03;103008.63;7395638;19;19918;-64
2024/01/08 10:51:42;;;;;;;;;;;;;;;6.48;78.91;103005.19;7388120;19;19930;-64
2024/01/08 10:54:08;;;;;;;;;;;;;;;6.50;79.18;103007.84;7374269;19;19918;-65
2024/01/08 10:56:33;;;;;;;;;;;;;;;6.53;79.20;103007.03;7375923;19;19930;-64
2024/01/08 10:59:05;;;;;;;;;;;;;;;6.53;78.83;103007.03;7386697;19;20743;-64
2024/01/08 11:01:34;;;;;;;;;;;;;;;6.55;79.06;103010.59;7390792;19;19922;-65
2024/01/08 11:04:00;;;;;;;;;;;;;;;6.57;79.24;103008.91;7395483;19;19944;-65
2024/01/08 11:06:28;;;;;;;;;;;;;;;6.58;79.19;103010.66;7396819;19;19930;-64
2024/01/08 11:08:55;;;;;;;;;;;;;;;6.59;78.75;103015.00;7389774;19;20264;-64
2024/01/08 11:11:21;;;;;;;;;;;;;;;6.61;78.98;103006.44;7392365;19;19931;-64
2024/01/08 11:13:46;;;;;;;;;;;;;;;6.63;79.24;103002.16;7392015;19;19910;-64
2024/01/08 11:16:13;;;;;;;;;;;;;;;6.65;79.09;103002.25;7390072;19;19986;-64
2024/01/08 11:18:38;;;;;;;;;;;;;;;6.68;79.08;103010.09;7392095;19;19922;-64
2024/01/08 11:21:04;;;;;;;;;;;;;;;6.70;78.75;103011.06;7396946;19;19926;-64
2024/01/08 11:23:40;;;;;;;;;;;;;;;6.73;78.74;103012.00;7392691;19;20671;-64
2024/01/08 11:26:19;;;;;;;;;;;;;;;6.76;78.80;103011.22;7394664;19;19923;-64
2024/01/08 11:28:59;;;;;;;;;;;;;;;6.79;78.64;103010.44;7384042;19;19952;-64
2024/01/08 11:31:44;;;;;;;;;;;;;;;6.81;78.76;103008.78;7391243;19;19923;-64
2024/01/08 11:34:18;;;;;;;;;;;;;;;6.85;79.17;102995.06;7395768;19;19926;-65
2024/01/08 11:36:47;;;;;;;;;;;;;;;6.90;79.10;102998.66;7395018;19;20379;-64
2024/01/08 11:39:17;;;;;;;;;;;;;;;6.99;79.88;103001.50;7389930;19;19922;-64
2024/01/08 11:41:43;;;;;;;;;;;;;;;7.09;79.83;103000.06;7391876;19;20244;-64
2024/01/08 11:44:08;;;;;;;;;;;;;;;7.17;79.80;103003.75;7391143;19;19939;-64
2024/01/08 11:46:34;;;;;;;;;;;;;;;7.24;79.12;103000.47;7391914;19;20373;-64
2024/01/08 11:49:00;;;;;;;;;;;;;;;7.28;79.13;103003.22;7393432;19;19923;-64
2024/01/08 11:51:25;;;;;;;;;;;;;;;7.29;79.05;102994.56;7387306;19;20443;-65
2024/01/08 11:53:51;;;;;;;;;;;;;;;7.30;79.02;102990.28;7391374;19;19927;-64
2024/01/08 11:56:17;;;;;;;;;;;;;;;7.31;78.95;102996.34;7390631;19;19922;-64
2024/01/08 11:58:46;;;;;;;;;;;;;;;7.30;78.67;102995.47;7386365;19;19926;-67
2024/01/08 12:01:18;;;;;;;;;;;;;;;7.29;78.54;102988.50;7362740;19;20700;-64
2024/01/08 12:03:44;;;;;;;;;;;;;;;7.26;78.22;102983.25;7362118;19;19922;-64
2024/01/08 12:06:09;;;;;;;;;;;;;;;7.26;78.65;102985.84;7371099;19;19923;-64
2024/01/08 12:08:34;;;;;;;;;;;;;;;7.25;78.58;102986.69;7362343;19;19918;-64
2024/01/08 12:11:00;;;;;;;;;;;;;;;7.24;77.81;102984.88;7362297;19;19956;-64
2024/01/08 12:13:26;;;;;;;;;;;;;;;7.23;77.76;102983.13;7362375;19;20635;-65
2024/01/08 12:15:51;;;;;;;;;;;;;;;7.25;78.18;102981.47;7362556;19;19922;-64
2024/01/08 12:18:17;;;;;;;;;;;;;;;7.25;79.12;102981.47;7362664;19;19936;-65
2024/01/08 12:20:43;;;;;;;;;;;;;;;7.26;78.56;102983.25;7362652;19;19919;-64
2024/01/08 12:23:09;;;;;;;;;;;;;;;7.27;78.81;102982.38;7362799;19;19919;-65
2024/01/08 12:25:34;;;;;;;;;;;;;;;7.28;78.53;102976.34;7364479;19;19939;-65
2024/01/08 12:27:59;;;;;;;;;;;;;;;7.31;79.05;102976.44;7359538;19;19914;-64
2024/01/08 12:30:26;;;;;;;;;;;;;;;7.35;78.76;102985.19;7357940;19;20694;-64
2024/01/08 12:32:52;;;;;;;;;;;;;;;7.39;78.99;102990.50;7359948;19;19919;-65
2024/01/08 12:35:18;;;;;;;;;;;;;;;7.48;79.52;102980.38;7363217;19;19946;-65
2024/01/08 12:37:43;;;;;;;;;;;;;;;7.57;79.99;102978.84;7364054;19;20597;-64
2024/01/08 12:40:10;;;;;;;;;;;;;;;7.65;79.95;102978.19;7361715;19;19991;-64